CYLH

Lansdowne House Airport

Lansdowne House, Ontario, Canada
METAR CYLH 171400Z AUTO 29006G15KT 260V330 9SM -SN OVC016 M13/M15 A3007 RMK SLP210
Observed Flight Rules
Dec-17 @ 14:00 UTC (an hour ago) Marginal Visual Flight Rules
Wind Visibility Clouds Conditions
290° at 6 knots
 Gusting to 15 knots
9 miles
  • Overcast at 1,600' AGL
  • Light Snow
Temperatures Readings
Current -13°C / 9°F
Dewpoint -15°C / 5°F
Humidity 85%
Altimeter 30.07" Hg
Pressure 1021 hPa
Elevation 254
METAR CYLH 171400Z AUTO 29006G15KT 260V330 9SM -SN OVC016 M13/M15 A3007 RMK SLP210
Observed Flight Rules
Dec-17 @ 14:00 UTC
(an hour ago)
MVFR
Wind Visibility
290° at 6 knots
 Gusting to 15 knots
9 miles
Clouds
  • Overcast at 1,600' AGL
Conditions
  • Light Snow
Temperature Dewpoint
-13°C / 9°F -15°C / 5°F
Humidity Altimeter Pressure
85% 30.07" Hg 1021 hPa